weather.gov     
National Weather Service

Terminal Aerodrome Forecast
NWS Homepage
This page is being discontinued on March 12, 2014.
The same data is available at this site. Please update your bookmarks.
Thank you, and we apologize for the inconvenience.
Please send an email to SR-SRH.Webmaster@noaa.gov with any concerns.


Current Version
Previous Version:    01  02  03  04  05  06  07  08  09  10  11  12  13  14  15  16  17  18  19  20  21  22  23  24  25  26  27  28  29  30  
   31  32  33  34  35  36  37  38  39  40  41  
[Printable]
144
FTUS42 KFFC 201144
TAFPDK
TAF
KPDK 201144Z 2012/2112 05003KT P6SM VCSH FEW040 OVC050
      TEMPO 2012/2014 5SM -SHRA BR BKN035
     FM201400 05005KT P6SM VCSH OVC035
     FM201900 08005KT P6SM BKN040
     FM202200 35004KT P6SM SCT050
     FM210700 05004KT 5SM BR OVC025
     FM211100 06005KT 4SM BR OVC004=


144
FTUS42 KFFC 201144
TAFPDK
TAF
KPDK 201144Z 2012/2112 05003KT P6SM VCSH FEW040 OVC050
      TEMPO 2012/2014 5SM -SHRA BR BKN035
     FM201400 05005KT P6SM VCSH OVC035
     FM201900 08005KT P6SM BKN040
     FM202200 35004KT P6SM SCT050
     FM210700 05004KT 5SM BR OVC025
     FM211100 06005KT 4SM BR OVC004=




U.S. Dept. of Commerce
NOAA National Weather Service
1325 East West Highway
Silver Spring, MD 20910
E-mail: w-nws.webmaster@noaa.gov
Page last modified: May 16, 2007
NATIONAL WEATHER SERVICE: for Safety, for Work, for Fun - FOR LIFE